Time;durP1;ratioP1;P1;durP2;ratioP2;P2;SDS_P1;SDS_P2;PMS_P1;PMS_P2;Temp;Humidity;BMP_temperature;BMP_pressure;BME280_temperature;BME280_humidity;BME280_pressure;Samples;Min_cycle;Max_cycle;Signal;HPM_P1;HPM_P2
2024/02/10 00:00:46;;;;;;;14.77;5.80;;;;;;;;;;4906490;29;20052;-72
2024/02/10 00:03:16;;;;;;;17.02;5.95;;;;;;;;;;4907080;29;20798;-72
2024/02/10 00:05:47;;;;;;;14.05;5.75;;;;;;;;;;4904765;29;20546;-78
2024/02/10 00:08:22;;;;;;;22.38;5.82;;;;;;;;;;4906091;29;20051;-73
2024/02/10 00:10:57;;;;;;;17.40;6.00;;;;;;;;;;4906243;29;20447;-75
2024/02/10 00:13:33;;;;;;;15.52;6.60;;;;;;;;;;4906676;29;20413;-74
2024/02/10 00:16:09;;;;;;;9.70;6.50;;;;;;;;;;4906258;29;20407;-76
2024/02/10 00:18:41;;;;;;;16.10;5.50;;;;;;;;;;4906260;29;20524;-73
2024/02/10 00:21:11;;;;;;;16.40;6.57;;;;;;;;;;4906456;29;20055;-72
2024/02/10 00:23:41;;;;;;;12.63;5.72;;;;;;;;;;4906819;29;20060;-73
2024/02/10 00:26:15;;;;;;;12.77;6.55;;;;;;;;;;4906286;29;20050;-73
2024/02/10 00:28:45;;;;;;;22.35;6.32;;;;;;;;;;4905925;29;20052;-75
2024/02/10 00:31:16;;;;;;;15.48;6.65;;;;;;;;;;4924346;29;20043;-72
2024/02/10 00:33:50;;;;;;;14.57;5.93;;;;;;;;;;4924117;29;20063;-72
2024/02/10 00:36:23;;;;;;;14.02;6.57;;;;;;;;;;4924612;29;20051;-77
2024/02/10 00:38:53;;;;;;;16.85;6.75;;;;;;;;;;4924618;29;20048;-73
2024/02/10 00:41:24;;;;;;;12.27;6.28;;;;;;;;;;4925240;29;20495;-75
2024/02/10 00:43:54;;;;;;;14.00;6.28;;;;;;;;;;4923484;29;20051;-73
2024/02/10 00:46:24;;;;;;;10.77;5.95;;;;;;;;;;4924552;29;20075;-73
2024/02/10 00:48:56;;;;;;;10.23;6.35;;;;;;;;;;4924331;29;20048;-73
2024/02/10 00:51:30;;;;;;;13.60;6.78;;;;;;;;;;4928599;29;20414;-74
2024/02/10 00:54:00;;;;;;;15.80;6.00;;;;;;;;;;4927608;29;20051;-74
2024/02/10 00:56:33;;;;;;;16.20;6.50;;;;;;;;;;4929323;29;20055;-74
2024/02/10 00:59:04;;;;;;;12.57;6.00;;;;;;;;;;4929116;29;20046;-78
2024/02/10 01:01:36;;;;;;;12.80;6.03;;;;;;;;;;4928548;29;20067;-74
2024/02/10 01:04:08;;;;;;;10.10;5.75;;;;;;;;;;4928734;29;20071;-75
2024/02/10 01:06:40;;;;;;;13.65;5.85;;;;;;;;;;4928006;29;20048;-74
2024/02/10 01:09:10;;;;;;;12.52;6.45;;;;;;;;;;4928614;29;20349;-74
2024/02/10 01:11:43;;;;;;;14.35;6.32;;;;;;;;;;4928340;29;20055;-74
2024/02/10 01:14:13;;;;;;;15.73;5.88;;;;;;;;;;4929012;29;20055;-74
2024/02/10 01:16:43;;;;;;;11.93;5.97;;;;;;;;;;4928534;29;20072;-74
2024/02/10 01:19:17;;;;;;;14.38;5.90;;;;;;;;;;4928916;29;20106;-74
2024/02/10 01:21:48;;;;;;;12.90;6.10;;;;;;;;;;4928837;29;20050;-73
2024/02/10 01:24:20;;;;;;;17.98;6.43;;;;;;;;;;4928743;29;20077;-74
2024/02/10 01:26:50;;;;;;;14.88;6.15;;;;;;;;;;4928956;29;20056;-74
2024/02/10 01:29:21;;;;;;;14.30;5.93;;;;;;;;;;4928442;29;20051;-74
2024/02/10 01:35:30;;;;;;;10.80;5.43;;;;;;;;;;4927806;29;20055;-74
2024/02/10 01:38:01;;;;;;;9.48;5.10;;;;;;;;;;4927905;29;20550;-74
2024/02/10 01:40:31;;;;;;;9.30;5.20;;;;;;;;;;4928032;29;20051;-74
2024/02/10 01:43:05;;;;;;;11.07;5.50;;;;;;;;;;4928366;29;20040;-73
2024/02/10 01:45:37;;;;;;;9.30;5.20;;;;;;;;;;4928923;29;20495;-73
2024/02/10 01:48:09;;;;;;;11.50;5.00;;;;;;;;;;4926952;29;20067;-74
2024/02/10 01:50:40;;;;;;;13.63;6.25;;;;;;;;;;4928499;29;20411;-74
2024/02/10 01:53:11;;;;;;;12.88;5.38;;;;;;;;;;4927965;29;20051;-74
2024/02/10 01:55:42;;;;;;;9.38;4.85;;;;;;;;;;4927168;29;20535;-74
2024/02/10 01:58:17;;;;;;;10.93;5.45;;;;;;;;;;4927785;29;20055;-74
2024/02/10 02:00:49;;;;;;;8.48;5.55;;;;;;;;;;4927432;29;20056;-74
2024/02/10 02:03:21;;;;;;;12.07;5.50;;;;;;;;;;4927398;29;20608;-74
2024/02/10 02:05:54;;;;;;;8.65;5.00;;;;;;;;;;4927688;29;20124;-74
2024/02/10 02:08:26;;;;;;;14.68;5.82;;;;;;;;;;4927583;29;20044;-74
2024/02/10 02:10:58;;;;;;;9.77;5.18;;;;;;;;;;4927625;29;20672;-74
2024/02/10 02:13:29;;;;;;;10.23;5.57;;;;;;;;;;4926903;29;20054;-74
2024/02/10 02:16:00;;;;;;;12.35;5.65;;;;;;;;;;4927563;29;20066;-74
2024/02/10 02:18:31;;;;;;;13.52;5.80;;;;;;;;;;4927487;29;20069;-74
2024/02/10 02:21:06;;;;;;;11.90;4.78;;;;;;;;;;4927796;29;20055;-74
2024/02/10 02:23:36;;;;;;;9.07;5.70;;;;;;;;;;4926924;29;20496;-74
2024/02/10 02:26:07;;;;;;;8.57;5.43;;;;;;;;;;4926556;29;20052;-73
2024/02/10 02:28:38;;;;;;;16.08;5.75;;;;;;;;;;4926993;29;20060;-75
2024/02/10 02:31:10;;;;;;;11.25;4.90;;;;;;;;;;4927074;29;20531;-74
2024/02/10 02:33:40;;;;;;;13.30;5.55;;;;;;;;;;4925452;29;20075;-74
2024/02/10 02:36:10;;;;;;;9.55;5.43;;;;;;;;;;4927098;29;20048;-74
2024/02/10 02:38:43;;;;;;;7.60;5.47;;;;;;;;;;4924826;29;20051;-74
2024/02/10 02:41:15;;;;;;;7.50;5.50;;;;;;;;;;4926793;29;20043;-74
2024/02/10 02:43:46;;;;;;;11.27;5.65;;;;;;;;;;4927540;29;20047;-75
2024/02/10 02:46:16;;;;;;;10.43;5.43;;;;;;;;;;4926801;29;20499;-74
2024/02/10 02:48:48;;;;;;;12.02;5.63;;;;;;;;;;4926566;29;20051;-74
2024/02/10 02:51:23;;;;;;;10.68;6.13;;;;;;;;;;4926574;29;20418;-74
2024/02/10 02:53:56;;;;;;;10.38;6.03;;;;;;;;;;4927013;29;20646;-74
2024/02/10 02:56:26;;;;;;;8.68;5.22;;;;;;;;;;4927567;29;20047;-73
2024/02/10 02:58:57;;;;;;;10.35;6.55;;;;;;;;;;4926839;29;20513;-74
2024/02/10 03:01:30;;;;;;;11.73;5.30;;;;;;;;;;4926269;29;20051;-74
2024/02/10 03:04:01;;;;;;;7.35;5.68;;;;;;;;;;4927148;29;20831;-79
2024/02/10 03:06:31;;;;;;;7.10;5.35;;;;;;;;;;4926779;29;20052;-74
2024/02/10 03:09:02;;;;;;;15.50;5.80;;;;;;;;;;4927168;29;20058;-74
2024/02/10 03:11:36;;;;;;;11.60;5.57;;;;;;;;;;4927069;29;20065;-74
2024/02/10 03:14:07;;;;;;;7.40;4.90;;;;;;;;;;4925608;29;20036;-74
2024/02/10 03:16:38;;;;;;;15.05;5.43;;;;;;;;;;4926365;29;20067;-74
2024/02/10 03:19:09;;;;;;;6.18;4.47;;;;;;;;;;4926522;29;20047;-74
2024/02/10 03:21:40;;;;;;;12.15;5.80;;;;;;;;;;4926201;29;20506;-74
2024/02/10 03:24:11;;;;;;;10.73;5.15;;;;;;;;;;4925705;29;20044;-74
2024/02/10 03:26:41;;;;;;;17.65;6.57;;;;;;;;;;4926360;29;20411;-74
2024/02/10 03:29:11;;;;;;;18.23;6.45;;;;;;;;;;4924706;29;20043;-74
2024/02/10 03:31:44;;;;;;;12.73;4.88;;;;;;;;;;4926017;29;20062;-74
2024/02/10 03:34:16;;;;;;;7.55;4.82;;;;;;;;;;4925707;29;20056;-74
2024/02/10 03:36:48;;;;;;;10.93;5.32;;;;;;;;;;4926672;29;20051;-74
2024/02/10 03:39:18;;;;;;;9.63;4.68;;;;;;;;;;4926116;29;20063;-74
2024/02/10 03:41:50;;;;;;;16.83;5.20;;;;;;;;;;4927075;29;20055;-74
2024/02/10 03:44:22;;;;;;;14.35;5.03;;;;;;;;;;4926600;29;20048;-74
2024/02/10 03:46:54;;;;;;;9.48;5.22;;;;;;;;;;4924168;29;20060;-74
2024/02/10 03:49:26;;;;;;;10.63;5.88;;;;;;;;;;4925616;29;20063;-74
2024/02/10 03:51:56;;;;;;;10.68;5.55;;;;;;;;;;4925935;29;20420;-74
2024/02/10 03:54:27;;;;;;;10.85;5.00;;;;;;;;;;4926158;29;20051;-74
2024/02/10 03:56:58;;;;;;;11.18;4.95;;;;;;;;;;4925661;29;20048;-74
2024/02/10 03:59:29;;;;;;;9.60;5.32;;;;;;;;;;4925388;29;20055;-74
2024/02/10 04:02:00;;;;;;;11.43;5.35;;;;;;;;;;4926227;29;20610;-73
2024/02/10 04:04:30;;;;;;;7.95;4.40;;;;;;;;;;4925368;29;20059;-74
2024/02/10 04:07:01;;;;;;;7.45;4.43;;;;;;;;;;4925142;29;20059;-74
2024/02/10 04:09:32;;;;;;;9.35;4.57;;;;;;;;;;4925893;29;20047;-74
2024/02/10 04:12:03;;;;;;;14.32;4.97;;;;;;;;;;4925372;29;20052;-75
2024/02/10 04:14:33;;;;;;;9.05;5.07;;;;;;;;;;4925831;29;20055;-75
2024/02/10 04:17:04;;;;;;;8.45;4.88;;;;;;;;;;4925116;29;20842;-74
2024/02/10 04:19:36;;;;;;;10.73;4.78;;;;;;;;;;4925058;29;20522;-74
2024/02/10 04:22:07;;;;;;;8.98;4.57;;;;;;;;;;4925001;29;20047;-74
2024/02/10 04:24:38;;;;;;;8.60;4.53;;;;;;;;;;4924898;29;20052;-74
2024/02/10 04:27:08;;;;;;;5.32;4.28;;;;;;;;;;4925894;29;20487;-74
2024/02/10 04:29:40;;;;;;;8.30;4.70;;;;;;;;;;4925753;29;20533;-74
2024/02/10 04:32:12;;;;;;;6.55;4.25;;;;;;;;;;4925493;29;20054;-74
2024/02/10 04:34:45;;;;;;;6.80;4.70;;;;;;;;;;4925154;29;20050;-74
2024/02/10 04:37:19;;;;;;;9.68;5.05;;;;;;;;;;4925865;29;20059;-74
2024/02/10 04:39:50;;;;;;;6.80;4.50;;;;;;;;;;4925412;29;20499;-74
2024/02/10 04:42:19;;;;;;;6.60;4.07;;;;;;;;;;4923894;29;20063;-74
2024/02/10 04:44:51;;;;;;;8.23;5.32;;;;;;;;;;4924881;29;20426;-74
2024/02/10 04:47:23;;;;;;;6.97;4.32;;;;;;;;;;4924835;29;20080;-74
2024/02/10 04:49:55;;;;;;;8.95;4.72;;;;;;;;;;4923410;29;20071;-74
2024/02/10 04:52:25;;;;;;;7.97;4.53;;;;;;;;;;4925126;29;20078;-74
2024/02/10 04:54:57;;;;;;;8.60;4.85;;;;;;;;;;4923635;29;20060;-75
2024/02/10 04:57:30;;;;;;;11.70;4.57;;;;;;;;;;4924307;29;20605;-74
2024/02/10 05:00:10;;;;;;;5.90;4.35;;;;;;;;;;4924035;29;20570;-74
2024/02/10 05:02:41;;;;;;;6.30;4.50;;;;;;;;;;4924948;29;20058;-74
2024/02/10 05:05:14;;;;;;;6.50;4.53;;;;;;;;;;4925665;29;20055;-74
2024/02/10 05:07:47;;;;;;;8.77;4.75;;;;;;;;;;4925501;29;20055;-74
2024/02/10 05:10:20;;;;;;;6.18;4.13;;;;;;;;;;4924664;29;20047;-74
2024/02/10 05:12:52;;;;;;;10.18;4.78;;;;;;;;;;4923701;29;20048;-74
2024/02/10 05:15:25;;;;;;;8.07;4.00;;;;;;;;;;4924588;29;20056;-74
2024/02/10 05:17:56;;;;;;;10.85;4.60;;;;;;;;;;4924867;29;20064;-74
2024/02/10 05:20:29;;;;;;;8.05;4.20;;;;;;;;;;4925570;29;20063;-73
2024/02/10 05:23:01;;;;;;;6.65;4.82;;;;;;;;;;4925001;29;20052;-73
2024/02/10 05:25:34;;;;;;;7.90;4.65;;;;;;;;;;4924723;29;20048;-74
2024/02/10 05:28:07;;;;;;;7.82;5.25;;;;;;;;;;4925295;29;20058;-73
2024/02/10 05:30:37;;;;;;;8.88;4.50;;;;;;;;;;4925333;29;20046;-73
2024/02/10 05:33:08;;;;;;;7.43;4.68;;;;;;;;;;4924945;29;20043;-73
2024/02/10 05:35:40;;;;;;;7.00;4.13;;;;;;;;;;4924439;29;20048;-73
2024/02/10 05:38:12;;;;;;;10.55;4.07;;;;;;;;;;4927289;29;20055;-73
2024/02/10 05:40:42;;;;;;;7.65;4.50;;;;;;;;;;4927182;29;20062;-73
2024/02/10 05:43:14;;;;;;;8.35;4.70;;;;;;;;;;4927293;29;20124;-73
2024/02/10 05:45:47;;;;;;;8.48;4.40;;;;;;;;;;4927579;29;20048;-73
2024/02/10 05:48:20;;;;;;;9.77;5.25;;;;;;;;;;4928308;29;20848;-73
2024/02/10 05:50:54;;;;;;;7.70;4.85;;;;;;;;;;4927937;29;20419;-73
2024/02/10 05:53:24;;;;;;;9.88;4.50;;;;;;;;;;4927812;29;20341;-73
2024/02/10 05:55:55;;;;;;;9.02;4.40;;;;;;;;;;4928384;29;20047;-73
2024/02/10 05:58:29;;;;;;;7.13;4.47;;;;;;;;;;4926108;29;20058;-73
2024/02/10 06:00:59;;;;;;;9.73;4.60;;;;;;;;;;4927876;29;20604;-73
2024/02/10 06:03:30;;;;;;;12.07;4.80;;;;;;;;;;4927882;29;20835;-73
2024/02/10 06:06:05;;;;;;;7.07;4.80;;;;;;;;;;4927787;29;20074;-74
2024/02/10 06:08:37;;;;;;;11.23;5.00;;;;;;;;;;4927549;29;20051;-73
2024/02/10 06:11:07;;;;;;;7.88;5.13;;;;;;;;;;4926869;29;20388;-73
2024/02/10 06:13:38;;;;;;;6.90;4.60;;;;;;;;;;4928559;29;20048;-73
2024/02/10 06:16:10;;;;;;;9.25;4.65;;;;;;;;;;4927295;29;20055;-73
2024/02/10 06:18:41;;;;;;;7.20;5.55;;;;;;;;;;4927353;29;20506;-73
2024/02/10 06:21:15;;;;;;;8.88;4.72;;;;;;;;;;4927234;29;20051;-73
2024/02/10 06:23:45;;;;;;;9.98;5.13;;;;;;;;;;4927450;29;20052;-73
2024/02/10 06:29:50;;;;;;;10.27;4.88;;;;;;;;;;4926439;29;20059;-73
2024/02/10 06:32:21;;;;;;;11.98;5.20;;;;;;;;;;4926913;29;20055;-73
2024/02/10 06:34:52;;;;;;;10.43;5.18;;;;;;;;;;4926544;29;20043;-73
2024/02/10 06:37:24;;;;;;;9.85;5.35;;;;;;;;;;4926959;29;20043;-72
2024/02/10 06:39:55;;;;;;;9.65;5.90;;;;;;;;;;4927021;29;20054;-73
2024/02/10 06:42:26;;;;;;;10.50;5.40;;;;;;;;;;4927548;29;20047;-73
2024/02/10 06:44:59;;;;;;;8.43;5.28;;;;;;;;;;4927663;29;20043;-73
2024/02/10 06:47:29;;;;;;;9.60;5.88;;;;;;;;;;4925999;29;20515;-73
2024/02/10 06:49:59;;;;;;;9.57;5.88;;;;;;;;;;4926921;29;20534;-73
2024/02/10 06:52:37;;;;;;;9.93;6.03;;;;;;;;;;4926558;29;20519;-73
2024/02/10 06:55:12;;;;;;;11.23;6.38;;;;;;;;;;4926676;29;20814;-73
2024/02/10 06:57:44;;;;;;;10.77;6.75;;;;;;;;;;4927033;29;20078;-73
2024/02/10 07:00:15;;;;;;;11.00;6.05;;;;;;;;;;4926444;29;20078;-73
2024/02/10 07:02:46;;;;;;;11.65;7.35;;;;;;;;;;4926927;29;20422;-73
2024/02/10 07:05:19;;;;;;;11.98;6.55;;;;;;;;;;4926397;29;20047;-73
2024/02/10 07:07:50;;;;;;;10.93;6.80;;;;;;;;;;4926445;29;20098;-74
2024/02/10 07:10:24;;;;;;;11.57;7.43;;;;;;;;;;4926831;29;20078;-74
2024/02/10 07:12:55;;;;;;;12.00;8.00;;;;;;;;;;4926590;29;20059;-73
2024/02/10 07:15:30;;;;;;;15.60;8.82;;;;;;;;;;4926156;29;20424;-74
2024/02/10 07:18:02;;;;;;;17.42;7.72;;;;;;;;;;4926892;29;20059;-74
2024/02/10 07:20:34;;;;;;;13.27;9.00;;;;;;;;;;4926173;29;20057;-74
2024/02/10 07:23:05;;;;;;;13.63;9.35;;;;;;;;;;4926024;29;20415;-74
2024/02/10 07:25:38;;;;;;;16.55;8.38;;;;;;;;;;4926153;29;20047;-74
2024/02/10 07:28:11;;;;;;;16.08;8.63;;;;;;;;;;4926172;29;20043;-74
2024/02/10 07:30:46;;;;;;;16.10;9.18;;;;;;;;;;4926068;29;20059;-74
2024/02/10 07:33:16;;;;;;;17.05;9.32;;;;;;;;;;4926604;29;20058;-74
2024/02/10 07:35:49;;;;;;;16.77;9.77;;;;;;;;;;4927001;29;20048;-74
2024/02/10 07:38:20;;;;;;;16.23;8.70;;;;;;;;;;4925675;29;20051;-74
2024/02/10 07:40:51;;;;;;;15.50;8.88;;;;;;;;;;4925616;29;20047;-74
2024/02/10 07:43:20;;;;;;;14.90;9.13;;;;;;;;;;4925694;29;20070;-74
2024/02/10 07:45:52;;;;;;;13.63;8.93;;;;;;;;;;4924979;29;20821;-74
2024/02/10 07:48:23;;;;;;;14.35;8.85;;;;;;;;;;4926575;29;20058;-74
2024/02/10 07:50:54;;;;;;;15.55;8.73;;;;;;;;;;4925708;29;20062;-74
2024/02/10 07:53:25;;;;;;;16.83;9.30;;;;;;;;;;4925581;29;20054;-77
2024/02/10 07:55:57;;;;;;;16.98;8.90;;;;;;;;;;4925437;29;20055;-74
2024/02/10 07:58:29;;;;;;;17.65;9.80;;;;;;;;;;4925737;29;20051;-74
2024/02/10 08:01:01;;;;;;;14.57;9.32;;;;;;;;;;4925165;29;20052;-74
2024/02/10 08:03:32;;;;;;;15.50;10.50;;;;;;;;;;4925899;29;20070;-73
2024/02/10 08:06:04;;;;;;;15.05;10.68;;;;;;;;;;4925862;29;20415;-74
2024/02/10 08:08:36;;;;;;;14.20;9.35;;;;;;;;;;4925962;29;20043;-74
2024/02/10 08:11:06;;;;;;;15.57;9.80;;;;;;;;;;4925004;29;20055;-74
2024/02/10 08:13:36;;;;;;;15.90;10.35;;;;;;;;;;4924933;29;20557;-74
2024/02/10 08:16:08;;;;;;;18.35;11.10;;;;;;;;;;4923975;29;20063;-75
2024/02/10 08:18:41;;;;;;;18.63;11.15;;;;;;;;;;4925585;29;20048;-75
2024/02/10 08:21:12;;;;;;;17.55;11.15;;;;;;;;;;4926307;29;20054;-74
2024/02/10 08:23:49;;;;;;;19.17;11.32;;;;;;;;;;4925356;29;20047;-74
2024/02/10 08:26:20;;;;;;;20.33;11.82;;;;;;;;;;4925436;29;20078;-75
2024/02/10 08:28:51;;;;;;;21.75;12.82;;;;;;;;;;4925291;29;20059;-74
2024/02/10 08:31:23;;;;;;;22.40;11.80;;;;;;;;;;4924680;29;20043;-75
2024/02/10 08:33:58;;;;;;;26.50;12.70;;;;;;;;;;4925102;29;20402;-74
2024/02/10 08:36:29;;;;;;;19.50;11.77;;;;;;;;;;4925148;29;20055;-74
2024/02/10 08:39:16;;;;;;;20.23;12.30;;;;;;;;;;4925003;29;20058;-74
2024/02/10 08:41:48;;;;;;;22.17;13.23;;;;;;;;;;4924327;29;20048;-74
2024/02/10 08:44:19;;;;;;;26.67;12.57;;;;;;;;;;4923751;29;20058;-74
2024/02/10 08:46:50;;;;;;;19.17;12.38;;;;;;;;;;4925655;29;20044;-73
2024/02/10 08:49:20;;;;;;;22.15;14.25;;;;;;;;;;4923162;29;20068;-73
2024/02/10 08:51:54;;;;;;;21.83;13.98;;;;;;;;;;4925183;29;20471;-73
2024/02/10 08:54:44;;;;;;;24.48;13.77;;;;;;;;;;4925630;29;20074;-74
2024/02/10 08:57:19;;;;;;;25.08;14.13;;;;;;;;;;4925627;29;20048;-73
2024/02/10 08:59:50;;;;;;;24.27;14.27;;;;;;;;;;4925229;29;20591;-73
2024/02/10 09:02:22;;;;;;;22.70;14.02;;;;;;;;;;4924901;29;20048;-74
2024/02/10 09:04:54;;;;;;;23.30;14.07;;;;;;;;;;4926002;29;20051;-74
2024/02/10 09:07:24;;;;;;;27.13;14.60;;;;;;;;;;4924985;29;20496;-73
2024/02/10 09:09:56;;;;;;;22.85;15.10;;;;;;;;;;4925014;29;20079;-73
2024/02/10 09:12:28;;;;;;;24.77;14.43;;;;;;;;;;4928087;29;20055;-73
2024/02/10 09:14:58;;;;;;;24.60;15.57;;;;;;;;;;4928821;29;20058;-73
2024/02/10 09:17:29;;;;;;;24.98;15.27;;;;;;;;;;4928535;29;21113;-74
2024/02/10 09:20:00;;;;;;;25.13;14.38;;;;;;;;;;4928805;29;20047;-73
2024/02/10 09:22:30;;;;;;;26.05;15.25;;;;;;;;;;4928034;29;20059;-75
2024/02/10 09:25:02;;;;;;;28.85;14.93;;;;;;;;;;4927059;29;20051;-75
2024/02/10 09:27:33;;;;;;;27.05;14.82;;;;;;;;;;4927999;29;20050;-74
2024/02/10 09:30:04;;;;;;;29.60;15.98;;;;;;;;;;4928480;29;20059;-73
2024/02/10 09:32:37;;;;;;;28.52;15.38;;;;;;;;;;4928279;29;20051;-73
2024/02/10 09:35:08;;;;;;;33.88;15.93;;;;;;;;;;4926254;29;20059;-73
2024/02/10 09:37:44;;;;;;;35.45;16.48;;;;;;;;;;4928671;29;20066;-73
2024/02/10 09:40:14;;;;;;;;;;;;;;;;;;4928193;29;20059;-73
2024/02/10 09:42:49;;;;;;;34.65;15.00;;;;;;;;;;4928124;29;19923;-72
2024/02/10 09:45:23;;;;;;;23.38;13.32;;;;;;;;;;4928440;29;20050;-73
2024/02/10 09:47:55;;;;;;;24.92;13.65;;;;;;;;;;4927310;29;20059;-73
2024/02/10 09:50:31;;;;;;;23.67;12.77;;;;;;;;;;4928050;29;20062;-73
2024/02/10 09:53:06;;;;;;;23.08;13.55;;;;;;;;;;4927803;29;20044;-73
2024/02/10 09:55:40;;;;;;;28.27;14.27;;;;;;;;;;4927446;29;20051;-73
2024/02/10 09:58:10;;;;;;;20.70;14.05;;;;;;;;;;4926214;29;20067;-73
2024/02/10 10:00:41;;;;;;;21.92;12.10;;;;;;;;;;4927856;29;20056;-73
2024/02/10 10:03:14;;;;;;;19.27;12.05;;;;;;;;;;4926313;29;20047;-72
2024/02/10 10:05:47;;;;;;;21.13;12.30;;;;;;;;;;4927224;29;20067;-73
2024/02/10 10:08:22;;;;;;;22.38;12.38;;;;;;;;;;4927195;29;20036;-73
2024/02/10 10:10:54;;;;;;;22.02;12.05;;;;;;;;;;4927891;29;20059;-73
2024/02/10 10:13:25;;;;;;;18.67;12.13;;;;;;;;;;4927266;29;20056;-73
2024/02/10 10:15:57;;;;;;;22.20;11.77;;;;;;;;;;4927694;29;20055;-73
2024/02/10 10:18:29;;;;;;;20.90;11.15;;;;;;;;;;4927405;29;20043;-74
2024/02/10 10:21:00;;;;;;;20.63;11.75;;;;;;;;;;4926202;29;20048;-73
2024/02/10 10:23:33;;;;;;;17.08;11.20;;;;;;;;;;4926884;29;20047;-73
2024/02/10 10:26:05;;;;;;;27.02;11.88;;;;;;;;;;4927379;29;20055;-76
2024/02/10 10:28:41;;;;;;;22.58;11.80;;;;;;;;;;4927774;29;20063;-77
2024/02/10 10:31:12;;;;;;;26.85;11.63;;;;;;;;;;4926669;29;20055;-72
2024/02/10 10:33:48;;;;;;;15.32;11.35;;;;;;;;;;4927243;29;20035;-75
2024/02/10 10:36:24;;;;;;;18.88;11.07;;;;;;;;;;4927865;29;20036;-73
2024/02/10 10:38:57;;;;;;;23.00;11.25;;;;;;;;;;4927076;29;20047;-74
2024/02/10 10:41:28;;;;;;;20.92;11.38;;;;;;;;;;4926714;29;20511;-74
2024/02/10 10:44:01;;;;;;;23.40;10.75;;;;;;;;;;4926814;29;20039;-74
2024/02/10 10:46:33;;;;;;;16.67;10.13;;;;;;;;;;4927280;29;20051;-74
2024/02/10 10:49:04;;;;;;;20.15;11.52;;;;;;;;;;4924985;29;20530;-74
2024/02/10 10:51:45;;;;;;;22.67;10.55;;;;;;;;;;4926405;29;20051;-74
2024/02/10 10:54:19;;;;;;;18.50;10.70;;;;;;;;;;4927065;29;20056;-80
2024/02/10 10:56:50;;;;;;;17.17;10.82;;;;;;;;;;4926821;29;20058;-75
2024/02/10 10:59:22;;;;;;;17.75;11.60;;;;;;;;;;4926228;29;20051;-74
2024/02/10 11:01:53;;;;;;;22.15;11.88;;;;;;;;;;4927093;29;20059;-75
2024/02/10 11:04:26;;;;;;;23.20;11.20;;;;;;;;;;4927354;29;20347;-75
2024/02/10 11:06:59;;;;;;;25.05;11.18;;;;;;;;;;4927135;29;20044;-74
2024/02/10 11:09:29;;;;;;;18.83;12.10;;;;;;;;;;4926739;29;20047;-73
2024/02/10 11:12:03;;;;;;;24.38;12.23;;;;;;;;;;4926550;29;20501;-74
2024/02/10 11:14:33;;;;;;;23.92;12.32;;;;;;;;;;4926508;29;20044;-75
2024/02/10 11:17:12;;;;;;;22.33;11.52;;;;;;;;;;4927047;29;20063;-74
2024/02/10 11:19:43;;;;;;;19.67;11.45;;;;;;;;;;4927135;29;20059;-74
2024/02/10 11:22:13;;;;;;;18.00;11.27;;;;;;;;;;4926096;29;20078;-74
2024/02/10 11:24:48;;;;;;;23.73;11.63;;;;;;;;;;4925031;29;20051;-74
2024/02/10 11:27:19;;;;;;;17.23;10.48;;;;;;;;;;4926054;29;20047;-73
2024/02/10 11:29:58;;;;;;;20.33;11.13;;;;;;;;;;4926387;29;20051;-78
2024/02/10 11:32:28;;;;;;;19.58;10.40;;;;;;;;;;4926362;29;20495;-73
2024/02/10 11:34:59;;;;;;;19.80;10.45;;;;;;;;;;4923580;29;20062;-75
2024/02/10 11:37:32;;;;;;;17.63;10.40;;;;;;;;;;4924302;29;20055;-74
2024/02/10 11:40:03;;;;;;;16.35;10.93;;;;;;;;;;4925924;29;20419;-74
2024/02/10 11:42:36;;;;;;;20.95;10.55;;;;;;;;;;4926045;29;20051;-74
2024/02/10 11:45:09;;;;;;;14.38;8.90;;;;;;;;;;4925725;29;20362;-75
2024/02/10 11:47:43;;;;;;;18.08;9.38;;;;;;;;;;4925924;29;20067;-74
2024/02/10 11:50:14;;;;;;;15.52;8.20;;;;;;;;;;4926474;29;20055;-75
2024/02/10 11:52:46;;;;;;;13.05;8.25;;;;;;;;;;4925980;29;20063;-74
2024/02/10 11:55:19;;;;;;;12.60;9.55;;;;;;;;;;4926086;29;20388;-74
2024/02/10 11:57:51;;;;;;;13.45;7.55;;;;;;;;;;4926347;29;20043;-75
2024/02/10 12:00:23;;;;;;;9.93;6.60;;;;;;;;;;4925902;29;20439;-78
2024/02/10 12:02:54;;;;;;;11.50;5.95;;;;;;;;;;4925725;29;20062;-75
2024/02/10 12:05:29;;;;;;;7.25;5.32;;;;;;;;;;4925764;29;20488;-73
2024/02/10 12:08:02;;;;;;;8.43;6.25;;;;;;;;;;4925368;29;20043;-76
2024/02/10 12:10:40;;;;;;;8.35;6.55;;;;;;;;;;4925447;29;20044;-75
2024/02/10 12:13:11;;;;;;;10.63;6.90;;;;;;;;;;4924531;29;20062;-74
2024/02/10 12:15:42;;;;;;;7.90;5.72;;;;;;;;;;4924967;29;20383;-80
2024/02/10 12:18:13;;;;;;;7.80;5.20;;;;;;;;;;4924967;29;20063;-77
2024/02/10 12:20:46;;;;;;;7.85;5.88;;;;;;;;;;4923673;29;20059;-75
2024/02/10 12:23:18;;;;;;;7.90;5.88;;;;;;;;;;4925644;29;20055;-74
2024/02/10 12:25:51;;;;;;;8.68;5.82;;;;;;;;;;4924954;29;20062;-75
2024/02/10 12:28:23;;;;;;;7.50;5.57;;;;;;;;;;4925343;29;20055;-74
2024/02/10 12:30:54;;;;;;;8.00;4.93;;;;;;;;;;4925255;29;20515;-74
2024/02/10 12:33:25;;;;;;;8.27;5.63;;;;;;;;;;4925547;29;20070;-74
2024/02/10 12:35:55;;;;;;;10.13;6.15;;;;;;;;;;4924900;29;20053;-77
2024/02/10 12:38:26;;;;;;;7.50;6.10;;;;;;;;;;4925271;29;20040;-75
2024/02/10 12:40:57;;;;;;;7.82;5.13;;;;;;;;;;4924957;29;20059;-75
2024/02/10 12:43:29;;;;;;;8.05;5.57;;;;;;;;;;4925106;29;20056;-78
2024/02/10 12:45:59;;;;;;;6.47;4.80;;;;;;;;;;4928446;29;20553;-74
2024/02/10 12:48:30;;;;;;;6.82;4.78;;;;;;;;;;4930660;29;20044;-75
2024/02/10 12:51:03;;;;;;;11.13;4.63;;;;;;;;;;4931078;29;20055;-74
2024/02/10 12:53:38;;;;;;;10.13;4.75;;;;;;;;;;4931278;29;20059;-73
2024/02/10 12:56:10;;;;;;;6.18;4.68;;;;;;;;;;4930866;29;20055;-76
2024/02/10 12:58:43;;;;;;;9.20;4.65;;;;;;;;;;4931675;29;20044;-77
2024/02/10 13:01:13;;;;;;;9.65;4.88;;;;;;;;;;4931157;29;20048;-75
2024/02/10 13:03:43;;;;;;;9.25;4.35;;;;;;;;;;4931790;29;20541;-74
2024/02/10 13:06:14;;;;;;;9.50;4.93;;;;;;;;;;4930970;29;20040;-75
2024/02/10 13:08:46;;;;;;;7.00;4.60;;;;;;;;;;4931521;29;20058;-75
2024/02/10 13:11:17;;;;;;;6.15;4.57;;;;;;;;;;4931516;29;20426;-75
2024/02/10 13:13:48;;;;;;;6.18;3.97;;;;;;;;;;4930946;29;20058;-76
2024/02/10 13:16:50;;;;;;;5.82;4.50;;;;;;;;;;4931882;29;20511;-75
2024/02/10 13:20:08;;;;;;;7.88;3.90;;;;;;;;;;4930435;29;20063;-74
2024/02/10 13:22:40;;;;;;;8.70;4.15;;;;;;;;;;4931032;29;20079;-74
2024/02/10 13:25:12;;;;;;;8.35;4.53;;;;;;;;;;4930702;29;20538;-74
2024/02/10 13:27:44;;;;;;;10.73;4.72;;;;;;;;;;4931363;29;20048;-75
2024/02/10 13:30:14;;;;;;;12.55;4.75;;;;;;;;;;4930470;29;20566;-74
2024/02/10 13:32:45;;;;;;;10.05;4.32;;;;;;;;;;4931148;29;20082;-75
2024/02/10 13:35:17;;;;;;;10.38;4.00;;;;;;;;;;4931205;29;20043;-73
2024/02/10 14:00:39;;;;;;;7.50;4.07;;;;;;;;;;4927817;29;20052;-74
2024/02/10 14:03:14;;;;;;;7.07;3.95;;;;;;;;;;4927643;29;20110;-75
2024/02/10 14:08:49;;;;;;;8.40;4.15;;;;;;;;;;4923843;29;20056;-73
2024/02/10 14:11:27;;;;;;;8.43;6.45;;;;;;;;;;4926792;29;20059;-75
2024/02/10 14:13:59;;;;;;;7.72;3.97;;;;;;;;;;4927792;29;20063;-75
2024/02/10 14:16:33;;;;;;;9.30;4.15;;;;;;;;;;4927408;29;20064;-73
2024/02/10 14:19:13;;;;;;;8.27;4.10;;;;;;;;;;4924800;29;20056;-74
2024/02/10 14:21:45;;;;;;;9.40;3.63;;;;;;;;;;4927565;29;20052;-76
2024/02/10 14:24:18;;;;;;;6.68;3.95;;;;;;;;;;4925650;29;20052;-76
2024/02/10 14:27:00;;;;;;;9.40;4.78;;;;;;;;;;4925888;29;20549;-81
2024/02/10 14:29:34;;;;;;;7.88;3.97;;;;;;;;;;4927419;29;20056;-77
2024/02/10 14:32:20;;;;;;;7.28;4.70;;;;;;;;;;4925292;29;20424;-75
2024/02/10 14:38:08;;;;;;;9.20;3.95;;;;;;;;;;4919049;29;20545;-74
2024/02/10 14:40:40;;;;;;;8.95;4.10;;;;;;;;;;4927097;29;20055;-77
2024/02/10 14:43:10;;;;;;;5.60;3.50;;;;;;;;;;4927180;29;20413;-74
2024/02/10 14:45:40;;;;;;;6.22;3.78;;;;;;;;;;4926894;29;20055;-78
2024/02/10 14:48:11;;;;;;;5.85;4.00;;;;;;;;;;4927002;29;20063;-77
2024/02/10 14:50:46;;;;;;;9.32;3.78;;;;;;;;;;4927334;29;20044;-75
2024/02/10 14:53:17;;;;;;;5.10;3.67;;;;;;;;;;4926542;29;20048;-72
2024/02/10 14:55:48;;;;;;;8.13;4.15;;;;;;;;;;4926726;29;20411;-73
2024/02/10 14:58:19;;;;;;;6.07;3.70;;;;;;;;;;4927617;29;20048;-75
2024/02/10 15:01:09;;;;;;;9.43;3.80;;;;;;;;;;4925635;29;20048;-72
2024/02/10 15:03:42;;;;;;;7.78;3.72;;;;;;;;;;4926576;29;20043;-73
2024/02/10 15:06:33;;;;;;;6.20;3.47;;;;;;;;;;4926316;29;20048;-73
2024/02/10 15:09:10;;;;;;;5.78;3.38;;;;;;;;;;4926402;29;20048;-73
2024/02/10 15:11:41;;;;;;;11.15;3.50;;;;;;;;;;4926609;29;20054;-73
2024/02/10 15:14:11;;;;;;;8.23;3.97;;;;;;;;;;4926475;29;20055;-75
2024/02/10 15:16:42;;;;;;;4.35;2.83;;;;;;;;;;4925025;29;20545;-74
2024/02/10 15:19:12;;;;;;;7.05;3.72;;;;;;;;;;4926221;29;20048;-74
2024/02/10 15:21:43;;;;;;;6.32;3.40;;;;;;;;;;4925860;29;20608;-74
2024/02/10 15:24:17;;;;;;;6.15;3.33;;;;;;;;;;4925777;29;20817;-75
2024/02/10 15:26:48;;;;;;;6.82;3.25;;;;;;;;;;4926102;29;20055;-74
2024/02/10 15:29:19;;;;;;;12.15;3.33;;;;;;;;;;4926287;29;20145;-74
2024/02/10 15:31:56;;;;;;;4.50;3.20;;;;;;;;;;4925020;29;20039;-72
2024/02/10 15:34:30;;;;;;;5.85;3.60;;;;;;;;;;4923288;29;20059;-74
2024/02/10 15:38:03;;;;;;;4.25;2.92;;;;;;;;;;4926047;29;20051;-75
2024/02/10 15:40:35;;;;;;;5.47;2.88;;;;;;;;;;4926636;29;20055;-73